Time;durP1;ratioP1;P1;durP2;ratioP2;P2;SDS_P1;SDS_P2;PMS_P1;PMS_P2;Temp;Humidity;BMP_temperature;BMP_pressure;BME280_temperature;BME280_humidity;BME280_pressure;Samples;Min_cycle;Max_cycle;Signal;HPM_P1;HPM_P2
2024/01/31 00:00:35;;;;;;;1999.90;999.90;;;5.80;99.90;;;;;;4958164;28;20043;-82
2024/01/31 00:03:01;;;;;;;1999.90;999.90;;;5.70;99.90;;;;;;4958297;28;20039;-82
2024/01/31 00:05:26;;;;;;;1999.90;999.90;;;5.80;99.90;;;;;;4958653;28;20048;-82
2024/01/31 00:07:52;;;;;;;1999.90;999.90;;;5.80;99.90;;;;;;4961926;28;20047;-82
2024/01/31 00:10:17;;;;;;;1999.90;999.90;;;5.80;99.90;;;;;;4960408;28;20028;-82
2024/01/31 00:12:43;;;;;;;1999.90;999.90;;;5.80;99.90;;;;;;4960557;28;20573;-82
2024/01/31 00:15:09;;;;;;;1999.90;999.90;;;5.80;99.90;;;;;;4961140;28;20394;-82
2024/01/31 00:17:34;;;;;;;1999.90;999.90;;;5.80;99.90;;;;;;4960488;28;20039;-82
2024/01/31 00:20:00;;;;;;;1999.90;999.90;;;5.80;99.90;;;;;;4959609;28;20043;-82
2024/01/31 00:22:25;;;;;;;1999.90;999.90;;;5.90;99.90;;;;;;4957259;28;20486;-83
2024/01/31 00:24:51;;;;;;;1999.90;999.90;;;5.80;99.90;;;;;;4954894;28;20474;-83
2024/01/31 00:27:16;;;;;;;1999.90;999.90;;;5.80;99.90;;;;;;4954947;28;20050;-82
2024/01/31 00:29:42;;;;;;;1999.90;999.90;;;5.90;99.90;;;;;;4954981;28;20122;-83
2024/01/31 00:32:07;;;;;;;1999.90;999.90;;;5.80;99.90;;;;;;4955895;28;20131;-83
2024/01/31 00:34:33;;;;;;;1999.90;999.90;;;5.80;99.90;;;;;;4956324;28;20071;-83
2024/01/31 00:36:59;;;;;;;1999.90;999.90;;;5.80;99.90;;;;;;4954881;28;20032;-83
2024/01/31 00:39:28;;;;;;;1999.90;999.90;;;5.80;99.90;;;;;;4955459;28;20062;-82
2024/01/31 00:41:54;;;;;;;1999.90;999.90;;;5.90;99.90;;;;;;4956593;28;20043;-83
2024/01/31 00:44:20;;;;;;;1999.90;999.90;;;5.80;99.90;;;;;;4957292;28;20040;-83
2024/01/31 00:46:48;;;;;;;1999.90;999.90;;;5.80;99.90;;;;;;4954597;28;20087;-83
2024/01/31 00:49:13;;;;;;;1999.90;999.90;;;5.80;99.90;;;;;;4956052;28;20138;-83
2024/01/31 00:51:43;;;;;;;1999.90;999.90;;;5.80;99.90;;;;;;4954421;28;20040;-83
2024/01/31 00:54:09;;;;;;;1999.90;999.90;;;5.80;99.90;;;;;;4954470;28;20031;-81
2024/01/31 00:56:34;;;;;;;1999.90;999.90;;;5.80;99.90;;;;;;4954790;28;20035;-83
2024/01/31 00:59:00;;;;;;;1999.90;999.90;;;5.80;99.90;;;;;;4955797;28;20363;-82
2024/01/31 01:01:26;;;;;;;1999.90;999.90;;;5.80;99.90;;;;;;4954335;28;20505;-83
2024/01/31 01:03:51;;;;;;;1999.90;999.90;;;5.80;99.90;;;;;;4955608;28;20027;-83
2024/01/31 01:06:17;;;;;;;1999.90;999.90;;;5.80;99.90;;;;;;4954495;28;20031;-83
2024/01/31 01:08:42;;;;;;;1999.90;999.90;;;5.80;99.90;;;;;;4958683;28;20038;-83
2024/01/31 01:11:08;;;;;;;1999.90;999.90;;;5.80;99.90;;;;;;4959014;28;20043;-82
2024/01/31 01:13:33;;;;;;;1999.90;999.90;;;5.80;99.90;;;;;;4958281;28;20106;-82
2024/01/31 01:15:59;;;;;;;1999.90;999.90;;;5.80;99.90;;;;;;4959065;28;20064;-82
2024/01/31 01:18:24;;;;;;;1999.90;999.90;;;5.80;99.90;;;;;;4959026;28;20083;-83
2024/01/31 01:20:50;;;;;;;1999.90;999.90;;;5.80;99.90;;;;;;4957930;28;20397;-83
2024/01/31 01:23:15;;;;;;;1999.90;999.90;;;5.90;99.90;;;;;;4970916;28;20051;-83
2024/01/31 01:25:42;;;;;;;1999.90;999.90;;;5.80;99.90;;;;;;4965639;28;20513;-83
2024/01/31 01:28:07;;;;;;;1999.90;999.90;;;5.80;99.90;;;;;;4960321;28;20119;-83
2024/01/31 01:30:33;;;;;;;1999.90;999.90;;;5.80;99.90;;;;;;4962036;28;20036;-82
2024/01/31 01:32:58;;;;;;;1999.90;999.90;;;5.90;99.90;;;;;;4959677;28;20036;-83
2024/01/31 01:35:24;;;;;;;1999.90;999.90;;;5.80;99.90;;;;;;4957569;28;20122;-83
2024/01/31 01:37:50;;;;;;;1999.90;999.90;;;5.80;99.90;;;;;;4958906;28;20031;-83
2024/01/31 01:40:16;;;;;;;1999.90;999.90;;;5.80;99.90;;;;;;4958649;28;20044;-83
2024/01/31 01:42:41;;;;;;;1999.90;999.90;;;5.90;99.90;;;;;;4959099;28;20410;-83
2024/01/31 01:45:08;;;;;;;1999.90;999.90;;;5.90;99.90;;;;;;4957513;28;20051;-82
2024/01/31 01:47:35;;;;;;;1999.90;999.90;;;5.90;99.90;;;;;;4958983;28;20556;-83
2024/01/31 01:50:02;;;;;;;1999.90;999.90;;;5.90;99.90;;;;;;4958360;28;20123;-83
2024/01/31 01:52:29;;;;;;;1999.90;999.90;;;5.90;99.90;;;;;;4956629;28;20059;-82
2024/01/31 01:54:55;;;;;;;1999.90;999.90;;;5.90;99.90;;;;;;4958561;28;20032;-82
2024/01/31 01:57:20;;;;;;;1999.90;999.90;;;6.00;99.90;;;;;;4958496;28;20432;-83
2024/01/31 01:59:46;;;;;;;1999.90;999.90;;;6.00;99.90;;;;;;4956942;28;20451;-83
2024/01/31 02:02:12;;;;;;;1999.90;999.90;;;6.10;99.90;;;;;;4956729;28;20035;-83
2024/01/31 02:04:38;;;;;;;1999.90;999.90;;;6.10;99.90;;;;;;4958450;28;20028;-83
2024/01/31 02:07:05;;;;;;;1999.90;999.90;;;6.20;99.90;;;;;;4956819;28;20466;-82
2024/01/31 02:09:31;;;;;;;1999.90;999.90;;;6.30;99.90;;;;;;4958095;28;20042;-83
2024/01/31 02:11:57;;;;;;;1999.90;999.90;;;6.40;99.90;;;;;;4956528;28;20036;-83
2024/01/31 02:14:22;;;;;;;1999.90;999.90;;;6.50;99.90;;;;;;4956895;28;20036;-83
2024/01/31 02:16:48;;;;;;;1999.90;999.90;;;6.60;99.90;;;;;;4958157;28;20229;-83
2024/01/31 02:19:13;;;;;;;1999.90;999.90;;;6.70;99.90;;;;;;4957220;28;20087;-83
2024/01/31 02:21:45;;;;;;;1999.90;999.90;;;6.90;99.90;;;;;;4956372;28;20067;-83
2024/01/31 02:24:11;;;;;;;1999.90;999.90;;;6.90;99.90;;;;;;4958306;28;20036;-83
2024/01/31 02:26:37;;;;;;;1999.90;999.90;;;6.90;99.90;;;;;;4956113;28;20493;-83
2024/01/31 02:29:02;;;;;;;1999.90;999.90;;;6.90;99.90;;;;;;4957929;28;20040;-83
2024/01/31 02:31:28;;;;;;;1999.90;999.90;;;7.00;99.90;;;;;;4956378;28;20044;-83
2024/01/31 02:33:53;;;;;;;1999.90;999.90;;;7.00;99.90;;;;;;4960164;28;20032;-82
2024/01/31 02:36:19;;;;;;;1999.90;999.90;;;7.00;99.90;;;;;;4959391;28;20422;-83
2024/01/31 02:38:45;;;;;;;1999.90;999.90;;;7.10;99.90;;;;;;4956340;28;20042;-83
2024/01/31 02:41:10;;;;;;;1999.90;999.90;;;7.30;99.90;;;;;;4956126;28;20533;-82
2024/01/31 02:43:36;;;;;;;1999.90;999.90;;;7.10;99.90;;;;;;4959852;28;20061;-82
2024/01/31 02:46:01;;;;;;;1999.90;999.90;;;7.10;99.90;;;;;;4959158;28;20036;-82
2024/01/31 02:48:27;;;;;;;1999.90;999.90;;;7.10;99.90;;;;;;4958563;28;20156;-82
2024/01/31 02:50:52;;;;;;;1999.90;999.90;;;7.10;99.90;;;;;;4961233;28;20040;-82
2024/01/31 02:53:18;;;;;;;1999.90;999.90;;;7.10;99.90;;;;;;4960839;28;20107;-82
2024/01/31 02:55:43;;;;;;;1999.90;999.90;;;7.10;99.90;;;;;;4959533;28;20047;-82
2024/01/31 02:58:09;;;;;;;1999.90;999.90;;;7.20;99.90;;;;;;4959288;28;20032;-81
2024/01/31 03:00:34;;;;;;;1999.90;999.90;;;7.10;99.90;;;;;;4959664;28;20383;-82
2024/01/31 03:03:00;;;;;;;1999.90;999.90;;;7.10;99.90;;;;;;4959089;28;20546;-82
2024/01/31 03:05:26;;;;;;;1999.90;999.90;;;7.10;99.90;;;;;;4958798;28;20036;-82
2024/01/31 03:07:51;;;;;;;1999.90;999.90;;;7.10;99.90;;;;;;4960825;28;20050;-82
2024/01/31 03:10:17;;;;;;;1999.90;999.90;;;7.10;99.90;;;;;;4959336;28;20092;-82
2024/01/31 03:12:42;;;;;;;1999.90;999.90;;;7.20;99.90;;;;;;4959556;28;20087;-82
2024/01/31 03:15:08;;;;;;;1999.90;999.90;;;7.10;99.90;;;;;;4959677;28;20039;-82
2024/01/31 03:17:35;;;;;;;1999.90;999.90;;;7.20;99.90;;;;;;4961757;28;20062;-82
2024/01/31 03:20:05;;;;;;;1999.90;999.90;;;7.20;99.90;;;;;;4961195;28;20046;-82
2024/01/31 03:22:32;;;;;;;1999.90;999.90;;;7.20;99.90;;;;;;4961794;28;20442;-82
2024/01/31 03:24:57;;;;;;;1999.90;999.90;;;7.30;99.90;;;;;;4966182;28;20027;-81
2024/01/31 03:27:23;;;;;;;1999.90;999.90;;;7.30;99.90;;;;;;4966085;28;20376;-82
2024/01/31 03:29:48;;;;;;;1999.90;999.90;;;7.30;99.90;;;;;;4957750;28;20074;-82
2024/01/31 03:32:14;;;;;;;1999.90;999.90;;;7.40;99.90;;;;;;4958200;28;20043;-83
2024/01/31 03:34:39;;;;;;;1999.90;999.90;;;7.30;99.90;;;;;;4959717;28;20478;-82
2024/01/31 03:37:05;;;;;;;1999.90;999.90;;;7.40;99.90;;;;;;4961520;28;20544;-82
2024/01/31 03:39:32;;;;;;;1999.90;999.90;;;7.40;99.90;;;;;;4960839;28;20054;-82
2024/01/31 03:41:57;;;;;;;1999.90;999.90;;;7.40;99.90;;;;;;4959547;28;20088;-82
2024/01/31 03:44:23;;;;;;;1999.90;999.90;;;7.50;99.90;;;;;;4960024;28;20032;-82
2024/01/31 03:46:48;;;;;;;1999.90;999.90;;;7.60;99.90;;;;;;4962137;28;20040;-82
2024/01/31 03:49:14;;;;;;;1999.90;999.90;;;7.60;99.90;;;;;;4960156;28;20074;-82
2024/01/31 03:51:39;;;;;;;1999.90;999.90;;;7.60;99.90;;;;;;4960633;28;20074;-82
2024/01/31 03:54:05;;;;;;;1999.90;999.90;;;7.60;99.90;;;;;;4960454;28;20043;-82
2024/01/31 03:56:31;;;;;;;1999.90;999.90;;;7.60;99.90;;;;;;4959620;28;20039;-82
2024/01/31 03:58:56;;;;;;;1999.90;999.90;;;7.60;99.90;;;;;;4959221;28;20039;-82
2024/01/31 04:01:22;;;;;;;1999.90;999.90;;;7.60;99.90;;;;;;4959407;28;20042;-82
2024/01/31 04:03:47;;;;;;;1999.90;999.90;;;7.60;99.90;;;;;;4959779;28;20031;-82
2024/01/31 04:06:13;;;;;;;1999.90;999.90;;;7.70;99.90;;;;;;4964222;28;20103;-82
2024/01/31 04:08:39;;;;;;;1999.90;999.90;;;7.80;99.90;;;;;;4963260;28;20036;-82
2024/01/31 04:11:04;;;;;;;1999.90;999.90;;;7.80;99.90;;;;;;4958560;28;20446;-82
2024/01/31 04:13:30;;;;;;;1999.90;999.90;;;7.80;99.90;;;;;;4957727;28;20074;-82
2024/01/31 04:15:57;;;;;;;1999.90;999.90;;;7.80;99.90;;;;;;4957611;28;20050;-82
2024/01/31 04:18:23;;;;;;;1999.90;999.90;;;7.70;99.90;;;;;;4956914;28;20036;-82
2024/01/31 04:20:49;;;;;;;1999.90;999.90;;;7.70;99.90;;;;;;4959124;28;20486;-82
2024/01/31 04:23:15;;;;;;;1999.90;999.90;;;7.70;99.90;;;;;;4958927;28;20036;-82
2024/01/31 04:25:41;;;;;;;1999.90;999.90;;;7.60;99.90;;;;;;4957491;28;20043;-82
2024/01/31 04:28:06;;;;;;;1999.90;999.90;;;7.60;99.90;;;;;;4959332;28;20039;-82
2024/01/31 04:30:32;;;;;;;1999.90;999.90;;;7.60;99.90;;;;;;4959317;28;20367;-82
2024/01/31 04:33:01;;;;;;;1999.90;999.90;;;7.50;99.90;;;;;;4957480;28;20482;-82
2024/01/31 04:35:30;;;;;;;1999.90;999.90;;;7.50;99.90;;;;;;4959411;28;20533;-82
2024/01/31 04:37:56;;;;;;;1999.90;999.90;;;7.40;99.90;;;;;;4957606;28;20094;-82
2024/01/31 04:40:21;;;;;;;1999.90;999.90;;;7.40;99.90;;;;;;4959382;28;20080;-82
2024/01/31 04:42:47;;;;;;;1999.90;999.90;;;7.40;99.90;;;;;;4961632;28;20480;-82
2024/01/31 04:45:16;;;;;;;1999.90;999.90;;;7.30;99.90;;;;;;4961042;28;20032;-82
2024/01/31 04:47:41;;;;;;;1999.90;999.90;;;7.30;99.90;;;;;;4960611;28;20035;-81
2024/01/31 04:50:07;;;;;;;1999.90;999.90;;;7.40;99.90;;;;;;4962474;28;20038;-82
2024/01/31 04:52:33;;;;;;;1999.90;999.90;;;7.40;99.90;;;;;;4961086;28;20498;-82
2024/01/31 04:54:58;;;;;;;1999.90;999.90;;;7.40;99.90;;;;;;4960326;28;20035;-82
2024/01/31 04:57:24;;;;;;;1999.90;999.90;;;7.40;99.90;;;;;;4962503;28;20057;-82
2024/01/31 04:59:50;;;;;;;1999.90;999.90;;;7.30;99.90;;;;;;4962602;28;20028;-82
2024/01/31 05:02:15;;;;;;;1999.90;999.90;;;7.30;99.90;;;;;;4960647;28;20035;-82
2024/01/31 05:04:41;;;;;;;1999.90;999.90;;;7.30;99.90;;;;;;4963252;28;20036;-82
2024/01/31 05:07:06;;;;;;;1999.90;999.90;;;7.20;99.90;;;;;;4962040;28;20051;-82
2024/01/31 05:09:32;;;;;;;1999.90;999.90;;;7.20;99.90;;;;;;4960753;28;20032;-82
2024/01/31 05:11:58;;;;;;;1999.90;999.90;;;7.10;99.90;;;;;;4962415;28;20512;-82
2024/01/31 05:14:23;;;;;;;1999.90;999.90;;;7.10;99.90;;;;;;4963040;28;20047;-82
2024/01/31 05:16:49;;;;;;;1999.90;999.90;;;7.10;99.90;;;;;;4961445;28;20064;-82
2024/01/31 05:19:15;;;;;;;1999.90;999.90;;;7.10;99.90;;;;;;4960857;28;20127;-82
2024/01/31 05:21:48;;;;;;;1999.90;999.90;;;7.10;99.90;;;;;;4961595;28;20119;-82
2024/01/31 05:24:14;;;;;;;1999.90;999.90;;;7.10;99.90;;;;;;4961616;28;20028;-82
2024/01/31 05:26:42;;;;;;;1999.90;999.90;;;7.00;99.90;;;;;;4964186;28;20036;-81
2024/01/31 05:29:07;;;;;;;1999.90;999.90;;;7.10;99.90;;;;;;4966045;28;20038;-82
2024/01/31 05:31:33;;;;;;;1999.90;999.90;;;7.10;99.90;;;;;;4959979;28;20397;-82
2024/01/31 05:33:59;;;;;;;1999.90;999.90;;;7.20;99.90;;;;;;4961631;28;20043;-82
2024/01/31 05:36:24;;;;;;;1999.90;999.90;;;7.20;99.90;;;;;;4961543;28;20092;-82
2024/01/31 05:38:50;;;;;;;1999.90;999.90;;;7.30;99.90;;;;;;4959395;28;20063;-82
2024/01/31 05:41:15;;;;;;;1999.90;999.90;;;7.30;99.90;;;;;;4962404;28;20059;-83
2024/01/31 05:43:41;;;;;;;1999.90;999.90;;;7.30;99.90;;;;;;4961233;28;20036;-82
2024/01/31 05:46:07;;;;;;;1999.90;999.90;;;7.40;99.90;;;;;;4961208;28;20044;-82
2024/01/31 05:48:33;;;;;;;1999.90;999.90;;;7.40;99.90;;;;;;4961562;28;20079;-82
2024/01/31 05:50:58;;;;;;;1999.90;999.90;;;7.30;99.90;;;;;;4961142;28;20107;-82
2024/01/31 05:53:24;;;;;;;1999.90;999.90;;;7.30;99.90;;;;;;4962212;28;20035;-83
2024/01/31 05:55:49;;;;;;;1999.90;999.90;;;7.30;99.90;;;;;;4964691;28;20531;-82
2024/01/31 05:58:17;;;;;;;1999.90;999.90;;;7.30;99.90;;;;;;4960749;28;20486;-83
2024/01/31 06:00:44;;;;;;;1999.90;999.90;;;7.20;99.90;;;;;;4960183;28;20031;-82
2024/01/31 06:03:10;;;;;;;1999.90;999.90;;;7.30;99.90;;;;;;4958561;28;20059;-81
2024/01/31 06:05:36;;;;;;;1999.90;999.90;;;7.20;99.90;;;;;;4958794;28;20039;-83
2024/01/31 06:08:02;;;;;;;1999.90;999.90;;;7.20;99.90;;;;;;4956079;28;20075;-84
2024/01/31 06:10:28;;;;;;;1999.90;999.90;;;7.20;99.90;;;;;;4954656;28;20036;-83
2024/01/31 06:12:54;;;;;;;1999.90;999.90;;;7.20;99.90;;;;;;4956523;28;20043;-82
2024/01/31 06:15:20;;;;;;;1999.90;999.90;;;7.10;99.90;;;;;;4957463;28;20036;-87
2024/01/31 06:17:46;;;;;;;1999.90;999.90;;;7.10;99.90;;;;;;4960033;28;20039;-84
2024/01/31 06:20:12;;;;;;;1999.90;999.90;;;7.00;99.90;;;;;;4957133;28;20044;-83
2024/01/31 06:22:37;;;;;;;1999.90;999.90;;;7.20;99.90;;;;;;4957029;28;20079;-83
2024/01/31 06:25:03;;;;;;;1999.90;999.90;;;7.00;99.90;;;;;;4959102;28;20028;-84
2024/01/31 06:27:29;;;;;;;1999.90;999.90;;;6.90;99.90;;;;;;4957348;28;20098;-83
2024/01/31 06:29:54;;;;;;;1999.90;999.90;;;6.90;99.90;;;;;;4957932;28;20032;-84
2024/01/31 06:32:22;;;;;;;1999.90;999.90;;;6.90;99.90;;;;;;4962338;28;20513;-83
2024/01/31 06:34:48;;;;;;;1999.90;999.90;;;6.90;99.90;;;;;;4968869;28;20034;-84
2024/01/31 06:37:14;;;;;;;1999.90;999.90;;;6.80;99.90;;;;;;4959270;28;20054;-84
2024/01/31 06:39:39;;;;;;;1999.90;999.90;;;6.80;99.90;;;;;;4958180;28;20032;-82
2024/01/31 06:42:07;;;;;;;1999.90;999.90;;;6.80;99.90;;;;;;4959974;28;20051;-83
2024/01/31 06:44:32;;;;;;;1999.90;999.90;;;6.80;99.90;;;;;;4959085;28;20115;-83
2024/01/31 06:46:58;;;;;;;1999.90;999.90;;;6.80;99.90;;;;;;4959479;28;20043;-82
2024/01/31 06:49:24;;;;;;;1999.90;999.90;;;6.80;99.90;;;;;;4960573;28;20074;-82
2024/01/31 06:51:50;;;;;;;1999.90;999.90;;;6.80;99.90;;;;;;4959140;28;20036;-82
2024/01/31 06:54:16;;;;;;;1999.90;999.90;;;6.80;99.90;;;;;;4957826;28;20444;-82
2024/01/31 06:56:41;;;;;;;1999.90;999.90;;;6.90;99.90;;;;;;4959229;28;20120;-82
2024/01/31 06:59:08;;;;;;;1999.90;999.90;;;6.80;99.90;;;;;;4960373;28;20095;-82
2024/01/31 07:01:33;;;;;;;1999.90;999.90;;;6.70;99.90;;;;;;4959372;28;20087;-83
2024/01/31 07:03:59;;;;;;;1999.90;999.90;;;6.70;99.90;;;;;;4960749;28;20031;-82
2024/01/31 07:06:25;;;;;;;1999.90;999.90;;;6.70;99.90;;;;;;4960277;28;20090;-83
2024/01/31 07:08:50;;;;;;;1999.90;999.90;;;6.70;99.90;;;;;;4959599;28;20039;-82
2024/01/31 07:11:16;;;;;;;1999.90;999.90;;;6.70;99.90;;;;;;4959554;28;20047;-83
2024/01/31 07:13:42;;;;;;;1999.90;999.90;;;6.70;99.90;;;;;;4960360;28;20046;-84
2024/01/31 07:16:09;;;;;;;1999.90;999.90;;;6.70;99.90;;;;;;4959962;28;20036;-83
2024/01/31 07:18:43;;;;;;;1999.90;999.90;;;6.70;99.90;;;;;;4959954;28;20039;-84
2024/01/31 07:21:09;;;;;;;1999.90;999.90;;;6.80;99.90;;;;;;4958847;28;20043;-82
2024/01/31 07:23:35;;;;;;;1999.90;999.90;;;6.70;99.90;;;;;;4960682;28;20031;-83
2024/01/31 07:26:01;;;;;;;1999.90;999.90;;;6.70;99.90;;;;;;4958687;28;20171;-82
2024/01/31 07:28:26;;;;;;;1999.90;999.90;;;6.70;99.90;;;;;;4959671;28;20091;-81
2024/01/31 07:30:52;;;;;;;1999.90;999.90;;;6.60;99.90;;;;;;4960191;28;20047;-82
2024/01/31 07:33:19;;;;;;;1999.90;999.90;;;6.70;99.90;;;;;;4960220;28;20497;-81
2024/01/31 07:35:45;;;;;;;1999.90;999.90;;;6.70;99.90;;;;;;4962693;28;20063;-82
2024/01/31 07:38:10;;;;;;;1999.90;999.90;;;6.70;99.90;;;;;;4963555;28;20078;-82
2024/01/31 07:40:36;;;;;;;1999.90;999.90;;;6.70;99.90;;;;;;4958491;28;20084;-82
2024/01/31 07:43:02;;;;;;;1999.90;999.90;;;6.80;99.90;;;;;;4957569;28;20036;-82
2024/01/31 07:45:28;;;;;;;1999.90;999.90;;;6.80;99.90;;;;;;4957874;28;20062;-85
2024/01/31 07:47:53;;;;;;;1999.90;999.90;;;6.80;99.90;;;;;;4959964;28;20048;-82
2024/01/31 07:50:19;;;;;;;1999.90;999.90;;;6.80;99.90;;;;;;4957919;28;20108;-82
2024/01/31 07:52:45;;;;;;;1999.90;999.90;;;6.90;99.90;;;;;;4960036;28;20044;-81
2024/01/31 07:55:11;;;;;;;1999.90;999.90;;;6.90;99.90;;;;;;4961157;28;20032;-83
2024/01/31 07:57:37;;;;;;;1999.90;999.90;;;6.90;99.90;;;;;;4958448;28;20035;-85
2024/01/31 08:00:07;;;;;;;1999.90;999.90;;;6.90;99.90;;;;;;4957738;28;20475;-84
2024/01/31 08:02:33;;;;;;;1999.90;999.90;;;6.90;99.90;;;;;;4960057;28;20051;-84
2024/01/31 08:04:58;;;;;;;1999.90;999.90;;;7.00;99.90;;;;;;4962560;28;20080;-84
2024/01/31 08:07:24;;;;;;;1999.90;999.90;;;7.10;99.90;;;;;;4962484;28;20094;-85
2024/01/31 08:09:50;;;;;;;1999.90;999.90;;;7.10;99.90;;;;;;4961809;28;20020;-84
2024/01/31 08:12:16;;;;;;;1999.90;999.90;;;7.30;99.90;;;;;;4962606;28;20512;-83
2024/01/31 08:14:42;;;;;;;1999.90;999.90;;;7.30;99.90;;;;;;4961756;28;20123;-84
2024/01/31 08:17:07;;;;;;;1999.90;999.90;;;7.30;99.90;;;;;;4962244;28;20119;-84
2024/01/31 08:19:34;;;;;;;1999.90;999.90;;;7.40;99.90;;;;;;4959297;28;20082;-83
2024/01/31 08:22:00;;;;;;;1999.90;999.90;;;7.40;99.90;;;;;;4956595;28;20035;-84
2024/01/31 08:24:25;;;;;;;1999.90;999.90;;;7.50;99.90;;;;;;4956528;28;20075;-84
2024/01/31 08:26:51;;;;;;;1999.90;999.90;;;7.60;99.90;;;;;;4956811;28;20036;-83
2024/01/31 08:29:17;;;;;;;1999.90;999.90;;;7.70;99.90;;;;;;4955898;28;20044;-84
2024/01/31 08:31:42;;;;;;;1999.90;999.90;;;7.70;99.90;;;;;;4956742;28;20044;-84
2024/01/31 08:34:09;;;;;;;1999.90;999.90;;;7.70;99.90;;;;;;4957198;28;20087;-82
2024/01/31 08:36:35;;;;;;;1999.90;999.90;;;7.80;99.90;;;;;;4957561;28;20043;-82
2024/01/31 08:39:01;;;;;;;1999.90;999.90;;;7.80;99.90;;;;;;4958941;28;20031;-83
2024/01/31 08:41:26;;;;;;;1999.90;999.90;;;7.80;99.90;;;;;;4957212;28;20031;-82
2024/01/31 08:43:52;;;;;;;1999.90;999.90;;;7.70;99.90;;;;;;4970918;23;20505;-85
2024/01/31 08:46:18;;;;;;;1999.90;999.90;;;7.80;99.90;;;;;;4954992;28;20035;-85
2024/01/31 08:48:43;;;;;;;1999.90;999.90;;;7.90;99.90;;;;;;4955060;28;20040;-85
2024/01/31 08:51:09;;;;;;;1999.90;999.90;;;7.90;99.90;;;;;;4954830;28;20064;-85
2024/01/31 08:53:34;;;;;;;1999.90;999.90;;;7.90;99.90;;;;;;4954718;28;20036;-85
2024/01/31 08:56:00;;;;;;;1999.90;999.90;;;7.90;99.90;;;;;;4956126;28;20038;-86
2024/01/31 08:58:26;;;;;;;1999.90;999.90;;;7.90;99.90;;;;;;4954606;28;20040;-86
2024/01/31 09:00:52;;;;;;;1999.90;999.90;;;7.90;99.90;;;;;;4956046;28;20036;-86
2024/01/31 09:03:18;;;;;;;1999.90;999.90;;;7.90;99.90;;;;;;4954244;28;20107;-87
2024/01/31 09:05:44;;;;;;;1999.90;999.90;;;7.90;99.90;;;;;;4954830;28;20528;-85
2024/01/31 09:08:09;;;;;;;1999.90;999.90;;;7.90;99.90;;;;;;4955985;28;20051;-86
2024/01/31 09:10:35;;;;;;;1999.90;999.90;;;8.00;99.90;;;;;;4954617;28;20496;-85
2024/01/31 09:13:00;;;;;;;1999.90;999.90;;;8.10;99.90;;;;;;4954553;28;20036;-85
2024/01/31 09:15:26;;;;;;;1999.90;999.90;;;8.20;99.90;;;;;;4955654;28;20039;-86
2024/01/31 09:17:52;;;;;;;1999.90;999.90;;;8.20;99.90;;;;;;4954254;28;20039;-86
2024/01/31 09:20:18;;;;;;;1999.90;999.90;;;8.30;99.90;;;;;;4953971;28;20040;-85
2024/01/31 09:22:44;;;;;;;1999.90;999.90;;;8.40;99.90;;;;;;4953896;28;20039;-87
2024/01/31 09:25:14;;;;;;;1999.90;999.90;;;8.40;99.90;;;;;;4954524;28;20032;-86
2024/01/31 09:27:40;;;;;;;1999.90;999.90;;;8.50;99.90;;;;;;4954401;28;20048;-86
2024/01/31 09:30:07;;;;;;;1999.90;999.90;;;8.60;99.90;;;;;;4957766;28;20038;-86
2024/01/31 09:32:33;;;;;;;1999.90;999.90;;;8.50;99.90;;;;;;4957100;28;20119;-86
2024/01/31 09:34:59;;;;;;;1999.90;999.90;;;8.40;99.90;;;;;;4957483;28;20031;-85
2024/01/31 09:37:24;;;;;;;1999.90;999.90;;;8.40;99.90;;;;;;4957505;28;20118;-86
2024/01/31 09:39:54;;;;;;;1999.90;999.90;;;8.40;99.90;;;;;;4957632;28;20071;-88
2024/01/31 09:42:19;;;;;;;1999.90;999.90;;;8.60;99.90;;;;;;4957014;28;20032;-87
2024/01/31 09:44:45;;;;;;;1999.90;999.90;;;8.70;99.90;;;;;;4956867;28;20055;-87
2024/01/31 09:47:12;;;;;;;1999.90;999.90;;;8.70;99.90;;;;;;4958567;28;20036;-85
2024/01/31 09:49:38;;;;;;;1999.90;999.90;;;8.80;99.90;;;;;;4957373;28;20071;-85
2024/01/31 09:52:05;;;;;;;1999.90;999.90;;;8.90;99.90;;;;;;4958878;28;20107;-86
2024/01/31 09:54:31;;;;;;;1999.90;999.90;;;9.00;99.90;;;;;;4957651;28;20031;-87
2024/01/31 09:56:57;;;;;;;1999.90;999.90;;;9.00;99.90;;;;;;4957593;28;20051;-88
2024/01/31 09:59:24;;;;;;;1999.90;999.90;;;9.10;99.90;;;;;;4957305;28;20074;-87
2024/01/31 10:01:55;;;;;;;1999.90;999.90;;;9.40;99.90;;;;;;4957458;28;20040;-87
2024/01/31 10:04:20;;;;;;;1999.90;999.90;;;9.30;99.90;;;;;;4957279;28;20027;-87
2024/01/31 10:06:46;;;;;;;1999.90;999.90;;;9.30;99.90;;;;;;4958396;28;20055;-86
2024/01/31 10:09:13;;;;;;;1999.90;999.90;;;9.40;99.90;;;;;;4957237;28;20074;-86
2024/01/31 10:11:44;;;;;;;1999.90;999.90;;;9.40;99.90;;;;;;4952045;28;20040;-86
2024/01/31 10:14:12;;;;;;;1999.90;999.90;;;9.40;99.90;;;;;;4952206;28;20032;-86
2024/01/31 10:16:37;;;;;;;1999.90;999.90;;;9.60;99.90;;;;;;4948433;28;20046;-86
2024/01/31 10:19:03;;;;;;;1999.90;999.90;;;9.60;99.90;;;;;;4945384;28;20038;-87
2024/01/31 10:21:32;;;;;;;1999.90;999.90;;;9.70;99.90;;;;;;4939962;28;20036;-87
2024/01/31 10:23:58;;;;;;;1999.90;999.90;;;9.90;99.90;;;;;;4944519;28;20466;-86
2024/01/31 10:26:25;;;;;;;1999.90;999.90;;;10.00;99.90;;;;;;4955861;28;20123;-87
2024/01/31 10:31:59;;;;;;;1999.90;999.90;;;9.80;99.90;;;;;;4941073;28;20503;-90
2024/01/31 10:34:27;;;;;;;1999.90;999.90;;;9.90;99.90;;;;;;4937671;28;20861;-87
2024/01/31 10:36:54;;;;;;;1999.90;999.90;;;10.20;99.90;;;;;;4949396;28;20066;-87
2024/01/31 10:39:21;;;;;;;1999.90;999.90;;;9.80;99.90;;;;;;4956300;28;20113;-88
2024/01/31 10:41:47;;;;;;;1999.90;999.90;;;9.80;99.90;;;;;;4945912;28;20418;-87
2024/01/31 10:44:14;;;;;;;1999.90;999.90;;;9.90;99.90;;;;;;4938559;28;20579;-88
2024/01/31 10:46:42;;;;;;;1999.90;999.90;;;10.00;99.90;;;;;;4937508;29;20044;-87
2024/01/31 10:49:07;;;;;;;1999.90;999.90;;;10.10;99.90;;;;;;4938493;28;20123;-86
2024/01/31 10:51:56;;;;;;;1999.90;999.90;;;9.80;99.90;;;;;;4937155;28;20538;-93
2024/01/31 10:54:27;;;;;;;1999.90;999.90;;;9.70;99.90;;;;;;4951867;28;20088;-87
2024/01/31 10:56:54;;;;;;;1999.90;999.90;;;10.00;99.90;;;;;;4947897;28;20126;-87
2024/01/31 10:59:19;;;;;;;1999.90;999.90;;;9.90;99.90;;;;;;4956534;28;20031;-88
2024/01/31 11:01:54;;;;;;;1999.90;999.90;;;9.80;99.90;;;;;;4944733;28;20398;-88
2024/01/31 11:04:21;;;;;;;1999.90;999.90;;;10.10;99.90;;;;;;4937219;28;20173;-87
2024/01/31 11:06:50;;;;;;;1999.90;999.90;;;10.20;99.90;;;;;;4937187;28;20048;-90
2024/01/31 11:09:18;;;;;;;1999.90;999.90;;;10.40;99.90;;;;;;4952665;28;20406;-86
2024/01/31 11:11:44;;;;;;;1999.90;999.90;;;10.40;99.90;;;;;;4944033;28;20091;-86
2024/01/31 11:14:09;;;;;;;1999.90;999.90;;;10.30;99.90;;;;;;4947928;28;20044;-87
2024/01/31 11:16:35;;;;;;;1999.90;999.90;;;10.00;99.90;;;;;;4936904;28;20534;-87
2024/01/31 11:19:03;;;;;;;1999.90;999.90;;;9.90;99.90;;;;;;4936982;29;20088;-88
2024/01/31 11:21:38;;;;;;;1999.90;999.90;;;10.10;99.90;;;;;;4943985;28;20047;-88
2024/01/31 11:24:04;;;;;;;1999.90;999.90;;;10.00;99.90;;;;;;4955838;28;20974;-90
2024/01/31 11:26:39;;;;;;;1999.90;999.90;;;10.00;99.90;;;;;;4957430;28;20496;-88
2024/01/31 11:29:04;;;;;;;1999.90;999.90;;;10.00;99.90;;;;;;4956058;28;20493;-88
2024/01/31 11:31:30;;;;;;;1999.90;999.90;;;10.10;99.90;;;;;;4940243;28;20040;-89
2024/01/31 11:33:59;;;;;;;1999.90;999.90;;;10.10;99.90;;;;;;4936719;28;20040;-89
2024/01/31 11:36:24;;;;;;;1999.90;999.90;;;10.10;99.90;;;;;;4944161;28;20048;-88
2024/01/31 11:38:50;;;;;;;1999.90;999.90;;;10.30;99.90;;;;;;4941547;28;20490;-89
2024/01/31 11:41:16;;;;;;;1999.90;999.90;;;10.40;99.90;;;;;;4936611;29;20048;-87
2024/01/31 11:43:42;;;;;;;1999.90;999.90;;;10.70;99.90;;;;;;4936129;29;20570;-89
2024/01/31 11:46:07;;;;;;;1999.90;999.90;;;10.80;99.90;;;;;;4936479;29;20044;-87
2024/01/31 11:48:33;;;;;;;1999.90;999.90;;;10.80;99.90;;;;;;4945596;28;20056;-89
2024/01/31 11:50:59;;;;;;;1999.90;999.90;;;10.80;99.90;;;;;;4954599;28;20031;-87
2024/01/31 11:53:24;;;;;;;1999.90;999.90;;;10.70;99.90;;;;;;4950358;28;20051;-87
2024/01/31 11:55:51;;;;;;;1999.90;999.90;;;10.90;99.90;;;;;;4947102;28;20411;-87
2024/01/31 11:58:17;;;;;;;1999.90;999.90;;;10.80;99.90;;;;;;4937792;28;20391;-87
2024/01/31 12:00:43;;;;;;;1999.90;999.90;;;10.60;99.90;;;;;;4950409;28;20095;-86
2024/01/31 12:03:11;;;;;;;1999.90;999.90;;;10.40;99.90;;;;;;4952754;28;20130;-88
2024/01/31 12:05:37;;;;;;;1999.90;999.90;;;10.60;99.90;;;;;;4943169;28;20498;-89